Time;durP1;ratioP1;P1;durP2;ratioP2;P2;SDS_P1;SDS_P2;PMS_P1;PMS_P2;Temp;Humidity;BMP_temperature;BMP_pressure;BME280_temperature;BME280_humidity;BME280_pressure;Samples;Min_cycle;Max_cycle;Signal;HPM_P1;HPM_P2
2021/12/26 00:00:46;;;;;;;97.70;6.03;;;2.80;1.00;;;;;;4980937;28;20185;-87
2021/12/26 00:03:22;;;;;;;113.00;6.77;;;2.80;1.00;;;;;;4981435;28;20211;-86
2021/12/26 00:05:50;;;;;;;38.33;3.77;;;2.80;1.00;;;;;;4980974;28;20201;-86
2021/12/26 00:08:17;;;;;;;52.70;4.37;;;2.70;1.00;;;;;;4981475;28;20189;-88
2021/12/26 00:10:47;;;;;;;142.13;8.57;;;2.70;1.00;;;;;;5018846;28;20598;-88
2021/12/26 00:13:14;;;;;;;108.73;5.43;;;2.70;1.00;;;;;;5000803;28;20193;-87
2021/12/26 00:15:41;;;;;;;81.83;6.33;;;2.70;1.00;;;;;;4985360;28;20567;-88
2021/12/26 00:18:11;;;;;;;73.07;4.17;;;2.70;1.00;;;;;;5001036;28;20257;-88
2021/12/26 00:20:40;;;;;;;180.03;7.90;;;2.60;1.00;;;;;;5001495;28;20870;-88
2021/12/26 00:23:08;;;;;;;30.83;3.90;;;2.70;1.00;;;;;;4984767;28;20193;-87
2021/12/26 00:25:35;;;;;;;71.57;5.77;;;2.60;1.00;;;;;;4965611;28;20193;-87
2021/12/26 00:28:02;;;;;;;70.30;5.67;;;2.60;1.00;;;;;;4979706;28;20190;-87
2021/12/26 00:30:29;;;;;;;113.37;6.07;;;2.60;1.00;;;;;;4984758;28;20648;-87
2021/12/26 00:32:56;;;;;;;73.80;4.87;;;2.50;1.00;;;;;;5000865;28;20221;-87
2021/12/26 00:35:24;;;;;;;43.60;4.43;;;2.60;1.00;;;;;;4984155;28;20228;-87
2021/12/26 00:37:55;;;;;;;187.93;8.63;;;2.60;1.00;;;;;;4984062;28;20193;-86
2021/12/26 00:40:26;;;;;;;141.40;7.73;;;2.60;1.00;;;;;;4984472;28;20197;-87
2021/12/26 00:42:55;;;;;;;40.97;4.17;;;2.60;1.00;;;;;;4984573;28;20201;-86
2021/12/26 00:45:23;;;;;;;210.73;8.43;;;2.60;1.00;;;;;;4983845;28;20702;-86
2021/12/26 00:47:51;;;;;;;249.60;10.50;;;2.60;1.00;;;;;;5000605;28;20201;-88
2021/12/26 00:50:25;;;;;;;85.83;5.33;;;2.60;1.00;;;;;;5000994;28;20212;-86
2021/12/26 00:52:53;;;;;;;294.37;12.43;;;2.60;1.00;;;;;;4984388;28;20251;-87
2021/12/26 00:55:20;;;;;;;211.30;10.97;;;2.60;1.00;;;;;;4983607;28;20225;-87
2021/12/26 00:57:50;;;;;;;215.37;10.90;;;2.60;1.00;;;;;;4983761;28;20189;-87
2021/12/26 01:00:24;;;;;;;142.83;8.60;;;2.60;1.00;;;;;;4999815;28;20248;-86
2021/12/26 01:02:52;;;;;;;146.43;10.00;;;2.60;99.90;;;;;;5000371;28;20686;-87
2021/12/26 01:05:26;;;;;;;223.90;8.90;;;2.60;1.40;;;;;;5000105;28;20204;-87
2021/12/26 01:07:59;;;;;;;201.23;9.90;;;2.60;1.40;;;;;;4984383;28;20255;-89
2021/12/26 01:10:39;;;;;;;172.37;9.43;;;2.60;1.40;;;;;;4983538;28;20203;-87
2021/12/26 01:13:17;;;;;;;133.47;5.57;;;2.60;1.00;;;;;;4981040;28;20197;-86
2021/12/26 01:15:45;;;;;;;101.77;5.03;;;2.60;99.90;;;;;;5000165;28;20801;-87
2021/12/26 01:18:13;;;;;;;271.67;9.20;;;2.60;99.90;;;;;;4983329;28;20185;-86
2021/12/26 01:20:54;;;;;;;149.80;7.50;;;2.60;99.90;;;;;;4999202;28;20557;-87
2021/12/26 01:23:23;;;;;;;140.23;8.60;;;2.60;99.90;;;;;;4999816;28;20236;-87
2021/12/26 01:25:51;;;;;;;207.27;8.67;;;2.60;99.90;;;;;;5000465;28;20738;-87
2021/12/26 01:28:21;;;;;;;82.67;5.37;;;2.60;99.90;;;;;;4983613;28;20324;-87
2021/12/26 01:30:48;;;;;;;48.40;3.23;;;2.60;99.90;;;;;;4999775;28;20694;-87
2021/12/26 01:33:18;;;;;;;33.67;3.77;;;2.60;99.90;;;;;;4983382;28;20236;-86
2021/12/26 01:35:46;;;;;;;91.60;5.57;;;2.60;99.90;;;;;;4983239;28;20224;-87
2021/12/26 01:38:15;;;;;;;78.93;5.37;;;2.60;99.90;;;;;;4983870;28;20229;-87
2021/12/26 01:40:47;;;;;;;205.40;8.27;;;2.60;99.90;;;;;;4983692;28;20196;-87
2021/12/26 01:43:16;;;;;;;209.93;8.00;;;2.60;99.90;;;;;;4982468;28;20201;-87
2021/12/26 01:45:44;;;;;;;97.30;6.37;;;2.60;99.90;;;;;;4983361;28;20664;-87
2021/12/26 01:48:12;;;;;;;302.73;11.53;;;2.60;99.90;;;;;;4983330;28;20678;-87
2021/12/26 01:50:41;;;;;;;88.27;6.20;;;2.60;99.90;;;;;;4999382;28;20193;-86
2021/12/26 01:53:10;;;;;;;211.83;8.43;;;2.60;99.90;;;;;;4982839;28;20263;-86
2021/12/26 01:55:44;;;;;;;167.47;8.10;;;2.60;99.90;;;;;;4982965;28;20943;-86
2021/12/26 01:58:22;;;;;;;269.17;11.20;;;2.60;99.90;;;;;;4999496;28;20197;-87
2021/12/26 02:00:54;;;;;;;245.07;9.00;;;2.60;99.90;;;;;;4982993;28;20272;-86
2021/12/26 02:03:21;;;;;;;201.73;8.97;;;2.60;99.90;;;;;;4983146;28;20189;-86
2021/12/26 02:05:48;;;;;;;187.70;8.80;;;2.60;99.90;;;;;;4998996;28;20711;-86
2021/12/26 02:08:15;;;;;;;249.57;8.77;;;2.60;99.90;;;;;;4998299;28;20208;-86
2021/12/26 02:10:42;;;;;;;147.23;6.83;;;2.50;99.90;;;;;;4998714;28;20197;-86
2021/12/26 02:13:09;;;;;;;95.50;4.50;;;2.50;99.90;;;;;;4997243;28;20620;-86
2021/12/26 02:15:36;;;;;;;233.30;10.37;;;2.50;99.90;;;;;;4982064;28;20709;-85
2021/12/26 02:18:06;;;;;;;287.40;11.47;;;2.50;99.90;;;;;;4998791;28;20686;-86
2021/12/26 02:21:04;;;;;;;270.47;10.80;;;2.50;99.90;;;;;;4982575;28;20689;-86
2021/12/26 02:23:36;;;;;;;430.90;14.27;;;2.50;99.90;;;;;;4997713;28;20279;-86
2021/12/26 02:28:50;;;;;;;300.03;9.07;;;2.50;99.90;;;;;;5014784;28;20259;-87
2021/12/26 02:31:17;;;;;;;51.40;3.37;;;2.50;99.90;;;;;;4982004;28;20205;-86
2021/12/26 02:33:44;;;;;;;230.47;9.17;;;2.50;1.40;;;;;;4982176;28;20211;-85
2021/12/26 02:36:11;;;;;;;209.17;8.33;;;2.50;99.90;;;;;;4981494;28;20741;-86
2021/12/26 02:38:38;;;;;;;182.83;6.33;;;2.60;99.90;;;;;;4981922;28;20204;-86
2021/12/26 02:41:05;;;;;;;217.63;7.53;;;2.60;99.90;;;;;;4982050;28;20217;-87
2021/12/26 02:43:33;;;;;;;134.30;7.20;;;2.60;99.90;;;;;;4981510;28;20216;-87
2021/12/26 02:46:05;;;;;;;164.37;6.50;;;2.60;99.90;;;;;;4982139;28;20232;-87
2021/12/26 02:48:37;;;;;;;115.83;6.80;;;2.70;99.90;;;;;;4982867;28;20208;-87
2021/12/26 02:51:05;;;;;;;125.20;6.13;;;2.70;99.90;;;;;;4981909;28;20228;-87
2021/12/26 02:53:33;;;;;;;139.07;5.93;;;2.80;1.00;;;;;;4982329;28;20201;-88
2021/12/26 02:56:01;;;;;;;71.20;5.37;;;2.70;1.00;;;;;;4981482;28;20209;-86
2021/12/26 02:58:32;;;;;;;89.93;5.43;;;2.70;1.00;;;;;;4982619;28;20192;-88
2021/12/26 03:01:01;;;;;;;64.43;5.33;;;2.70;1.00;;;;;;4982212;28;20651;-88
2021/12/26 03:03:29;;;;;;;42.33;4.27;;;2.70;1.00;;;;;;4998095;28;20209;-87
2021/12/26 03:06:07;;;;;;;190.83;7.10;;;2.70;1.00;;;;;;4998525;28;20652;-88
2021/12/26 03:08:37;;;;;;;84.40;4.83;;;2.70;1.00;;;;;;4982516;28;20663;-88
2021/12/26 03:11:04;;;;;;;50.17;4.87;;;2.80;1.00;;;;;;4982405;28;20298;-89
2021/12/26 03:13:31;;;;;;;88.47;5.40;;;2.80;1.00;;;;;;4981407;28;20189;-87
2021/12/26 03:15:58;;;;;;;71.27;5.07;;;2.90;1.00;;;;;;4998491;28;20656;-89
2021/12/26 03:18:26;;;;;;;31.83;4.03;;;2.90;1.00;;;;;;4997735;28;20193;-88
2021/12/26 03:20:53;;;;;;;270.53;10.33;;;2.90;1.00;;;;;;4981168;28;20189;-87
2021/12/26 03:23:23;;;;;;;120.63;6.50;;;2.90;1.00;;;;;;4997406;28;20189;-87
2021/12/26 03:25:53;;;;;;;104.17;5.60;;;2.90;1.00;;;;;;4981827;28;20192;-87
2021/12/26 03:28:21;;;;;;;64.07;4.90;;;2.90;1.00;;;;;;4981518;28;20204;-88
2021/12/26 03:30:49;;;;;;;184.70;8.23;;;2.90;1.00;;;;;;4981661;28;20300;-87
2021/12/26 03:33:16;;;;;;;176.53;8.07;;;2.80;1.00;;;;;;4997525;28;20613;-88
2021/12/26 03:35:44;;;;;;;98.03;7.50;;;2.80;1.00;;;;;;4981542;28;20624;-88
2021/12/26 03:38:13;;;;;;;203.70;8.57;;;2.80;1.00;;;;;;4980969;28;20720;-87
2021/12/26 03:40:41;;;;;;;194.17;8.10;;;2.90;1.00;;;;;;4981416;28;20237;-88
2021/12/26 03:43:11;;;;;;;137.67;7.63;;;2.90;1.00;;;;;;4996922;28;20209;-86
2021/12/26 03:45:40;;;;;;;229.23;10.87;;;2.90;1.00;;;;;;4981400;28;20197;-87
2021/12/26 03:48:08;;;;;;;75.13;5.10;;;2.90;1.00;;;;;;4997855;28;20193;-88
2021/12/26 03:50:39;;;;;;;83.57;6.10;;;2.90;1.00;;;;;;4981470;28;20200;-88
2021/12/26 03:53:08;;;;;;;145.90;7.27;;;2.90;1.00;;;;;;4981378;28;20221;-87
2021/12/26 03:55:36;;;;;;;134.13;7.33;;;2.90;1.00;;;;;;4980510;28;20213;-88
2021/12/26 03:58:04;;;;;;;115.80;7.57;;;2.90;1.00;;;;;;4981107;28;20640;-86
2021/12/26 04:00:31;;;;;;;89.23;6.50;;;2.90;1.00;;;;;;4997451;28;20574;-87
2021/12/26 04:02:58;;;;;;;98.33;6.50;;;2.90;1.00;;;;;;4981013;28;20197;-88
2021/12/26 04:05:25;;;;;;;186.87;7.47;;;2.90;1.00;;;;;;4997289;28;20196;-87
2021/12/26 04:07:52;;;;;;;111.33;6.17;;;2.90;1.00;;;;;;4981311;28;20591;-87
2021/12/26 04:10:21;;;;;;;181.30;8.73;;;2.90;1.00;;;;;;4997275;28;20196;-88
2021/12/26 04:12:52;;;;;;;84.97;7.53;;;2.90;1.00;;;;;;4981737;28;20669;-89
2021/12/26 04:15:22;;;;;;;247.13;15.23;;;2.90;1.00;;;;;;4997522;28;20600;-88
2021/12/26 04:17:51;;;;;;;145.13;7.23;;;2.90;1.00;;;;;;4997189;28;20219;-89
2021/12/26 04:20:21;;;;;;;59.83;4.77;;;2.90;1.00;;;;;;4981565;28;20190;-89
2021/12/26 04:22:49;;;;;;;145.67;6.93;;;2.90;1.00;;;;;;4997944;28;20312;-88
2021/12/26 04:25:18;;;;;;;65.13;4.53;;;2.90;1.00;;;;;;5014797;28;20197;-88
2021/12/26 04:27:44;;;;;;;60.30;5.63;;;2.90;1.00;;;;;;4981648;28;20197;-88
2021/12/26 04:30:13;;;;;;;181.03;7.10;;;2.90;1.00;;;;;;4981563;28;20529;-88
2021/12/26 04:32:40;;;;;;;97.57;5.17;;;2.90;1.00;;;;;;4981387;28;20654;-88
2021/12/26 04:35:07;;;;;;;179.03;7.87;;;2.90;1.00;;;;;;4981411;28;20228;-89
2021/12/26 04:37:35;;;;;;;124.63;7.23;;;2.90;1.00;;;;;;4997961;28;20244;-86
2021/12/26 04:40:07;;;;;;;263.07;8.90;;;2.80;1.00;;;;;;4997572;28;20193;-88
2021/12/26 04:42:36;;;;;;;202.83;8.17;;;2.90;1.00;;;;;;4981135;28;20267;-88
2021/12/26 04:45:07;;;;;;;112.90;6.73;;;2.80;1.00;;;;;;4981086;28;20189;-88
2021/12/26 04:47:35;;;;;;;41.60;3.27;;;2.80;1.00;;;;;;5015066;28;20193;-88
2021/12/26 04:50:10;;;;;;;69.07;4.60;;;2.80;1.00;;;;;;4981462;28;20194;-87
2021/12/26 04:52:39;;;;;;;95.63;7.27;;;2.90;1.00;;;;;;4981499;28;20651;-89
2021/12/26 04:55:07;;;;;;;111.83;7.63;;;2.90;1.00;;;;;;4998646;28;20586;-88
2021/12/26 04:57:33;;;;;;;255.20;10.27;;;2.90;1.00;;;;;;4984815;28;20185;-88
2021/12/26 05:00:00;;;;;;;82.23;6.60;;;2.90;1.00;;;;;;5001262;28;20189;-89
2021/12/26 05:02:29;;;;;;;138.93;6.83;;;2.90;1.00;;;;;;4973059;28;20185;-88
2021/12/26 05:04:56;;;;;;;120.57;6.47;;;2.90;1.00;;;;;;5001472;28;20288;-89
2021/12/26 05:07:23;;;;;;;93.40;6.70;;;2.90;1.00;;;;;;5001173;28;20260;-88
2021/12/26 05:09:49;;;;;;;104.33;6.47;;;2.90;1.00;;;;;;4984328;28;20189;-89
2021/12/26 05:12:16;;;;;;;166.03;7.03;;;2.90;1.00;;;;;;5002977;28;20200;-87
2021/12/26 05:14:43;;;;;;;146.80;8.10;;;2.90;1.00;;;;;;4985373;28;20197;-87
2021/12/26 05:17:10;;;;;;;125.63;7.67;;;2.90;1.00;;;;;;4984695;28;20195;-88
2021/12/26 05:19:37;;;;;;;52.07;5.30;;;3.00;1.00;;;;;;4985557;28;20247;-88
2021/12/26 05:22:06;;;;;;;57.20;4.33;;;3.00;1.00;;;;;;4984728;28;20197;-89
2021/12/26 05:24:33;;;;;;;45.50;4.30;;;3.00;1.00;;;;;;4984344;28;20181;-87
2021/12/26 05:27:00;;;;;;;18.80;2.90;;;3.00;1.00;;;;;;5001008;28;20664;-89
2021/12/26 05:29:27;;;;;;;21.47;3.10;;;3.00;1.00;;;;;;4983752;28;20224;-88
2021/12/26 05:31:54;;;;;;;12.93;3.07;;;3.00;1.00;;;;;;4984266;28;20201;-88
2021/12/26 05:34:21;;;;;;;18.17;4.00;;;3.00;1.00;;;;;;5000380;28;20263;-89
2021/12/26 05:36:48;;;;;;;9.40;2.63;;;3.00;1.00;;;;;;4983599;28;20308;-89
2021/12/26 05:39:15;;;;;;;19.57;3.27;;;3.00;1.00;;;;;;4983564;28;20197;-89
2021/12/26 05:41:42;;;;;;;172.63;10.30;;;3.10;1.00;;;;;;4983620;28;20304;-88
2021/12/26 05:44:09;;;;;;;52.23;5.37;;;3.10;1.00;;;;;;4984444;28;20212;-87
2021/12/26 05:46:37;;;;;;;13.67;3.40;;;3.10;1.00;;;;;;4983999;28;20224;-89
2021/12/26 05:49:04;;;;;;;90.30;9.17;;;3.10;1.00;;;;;;5017633;28;20269;-89
2021/12/26 05:51:32;;;;;;;6.63;2.93;;;3.10;1.00;;;;;;4983329;28;20231;-89
2021/12/26 05:53:59;;;;;;;6.57;3.57;;;3.10;1.00;;;;;;4984241;28;20652;-90
2021/12/26 05:56:26;;;;;;;5.20;3.37;;;3.20;1.00;;;;;;4983450;28;20587;-89
2021/12/26 05:58:53;;;;;;;9.03;3.47;;;3.30;1.00;;;;;;4978840;28;20185;-89
2021/12/26 06:01:22;;;;;;;8.67;3.70;;;3.30;1.00;;;;;;4979112;28;20186;-87
2021/12/26 06:03:49;;;;;;;5.70;3.27;;;3.30;1.00;;;;;;4964568;28;20199;-88
2021/12/26 06:06:16;;;;;;;13.83;3.47;;;3.30;1.00;;;;;;4981009;28;20570;-88
2021/12/26 06:08:44;;;;;;;61.40;5.77;;;3.30;1.00;;;;;;4981744;28;20244;-88
2021/12/26 06:11:13;;;;;;;9.77;3.13;;;3.30;1.00;;;;;;5015528;28;20177;-88
2021/12/26 06:13:40;;;;;;;150.03;8.83;;;3.30;1.00;;;;;;4982892;28;20227;-88
2021/12/26 06:16:07;;;;;;;11.80;3.03;;;3.20;1.00;;;;;;4997776;28;20201;-88
2021/12/26 06:18:34;;;;;;;13.93;3.20;;;3.20;1.00;;;;;;4987084;28;20531;-87
2021/12/26 06:21:02;;;;;;;5.87;3.10;;;3.30;1.00;;;;;;4998290;28;20736;-88
2021/12/26 06:23:29;;;;;;;7.07;3.60;;;3.30;1.00;;;;;;4982175;28;20197;-90
2021/12/26 06:25:56;;;;;;;7.73;3.87;;;3.30;1.00;;;;;;4999322;28;20186;-90
2021/12/26 06:28:24;;;;;;;6.13;3.10;;;3.30;1.00;;;;;;4983056;28;20193;-91
2021/12/26 06:30:51;;;;;;;8.47;3.27;;;3.30;1.00;;;;;;4983960;28;20200;-90
2021/12/26 06:33:18;;;;;;;10.10;3.43;;;3.30;1.00;;;;;;4983479;28;20196;-90
2021/12/26 06:35:45;;;;;;;7.57;3.40;;;3.30;1.00;;;;;;4997975;28;20662;-89
2021/12/26 06:38:12;;;;;;;86.23;7.43;;;3.30;1.00;;;;;;5015290;28;20189;-90
2021/12/26 06:40:39;;;;;;;4.93;3.13;;;3.30;1.00;;;;;;4983942;28;20189;-88
2021/12/26 06:43:07;;;;;;;7.47;3.30;;;3.30;99.90;;;;;;4982868;28;20239;-89
2021/12/26 06:45:34;;;;;;;6.20;3.20;;;3.30;99.90;;;;;;4982837;28;20557;-90
2021/12/26 06:48:03;;;;;;;5.70;3.30;;;3.30;1.00;;;;;;4966959;28;20204;-90
2021/12/26 06:50:30;;;;;;;6.00;3.30;;;3.40;1.00;;;;;;4982876;28;20197;-90
2021/12/26 06:52:57;;;;;;;4.93;3.40;;;3.40;1.00;;;;;;4982839;28;20209;-89
2021/12/26 06:55:24;;;;;;;6.33;3.40;;;3.50;1.00;;;;;;4980985;28;20667;-89
2021/12/26 06:57:53;;;;;;;6.10;3.57;;;3.50;1.00;;;;;;4990958;28;20205;-90
2021/12/26 07:00:21;;;;;;;6.40;4.10;;;3.50;1.00;;;;;;4979837;28;20215;-90
2021/12/26 07:02:48;;;;;;;5.40;3.33;;;3.50;1.00;;;;;;4978683;28;20281;-89
2021/12/26 07:05:16;;;;;;;6.30;3.93;;;3.50;1.00;;;;;;4998505;28;20181;-88
2021/12/26 07:07:43;;;;;;;9.03;3.93;;;3.50;1.00;;;;;;4971554;28;20186;-89
2021/12/26 07:10:13;;;;;;;7.27;3.97;;;3.50;1.00;;;;;;4980314;28;20247;-88
2021/12/26 07:12:41;;;;;;;8.37;4.47;;;3.50;1.00;;;;;;4983740;28;20181;-88
2021/12/26 07:15:09;;;;;;;10.27;4.80;;;3.50;1.00;;;;;;4982389;28;20228;-88
2021/12/26 07:17:36;;;;;;;9.80;4.90;;;3.60;1.00;;;;;;4997567;28;20267;-91
2021/12/26 07:20:07;;;;;;;8.13;4.33;;;3.60;1.40;;;;;;4981504;28;20193;-88
2021/12/26 07:22:35;;;;;;;9.23;4.60;;;3.60;1.00;;;;;;4978537;28;20192;-90
2021/12/26 07:25:07;;;;;;;9.73;4.70;;;3.60;1.40;;;;;;4974772;28;20193;-87
2021/12/26 07:27:38;;;;;;;10.47;4.73;;;3.60;1.00;;;;;;4982853;28;20200;-88
2021/12/26 07:30:11;;;;;;;157.73;8.50;;;3.60;1.00;;;;;;4998887;28;20613;-88
2021/12/26 07:32:39;;;;;;;25.60;5.00;;;3.60;99.90;;;;;;4983502;28;20198;-92
2021/12/26 07:35:07;;;;;;;58.93;6.93;;;3.60;99.90;;;;;;4982625;28;20201;-92
2021/12/26 07:37:35;;;;;;;9.40;4.83;;;3.50;99.90;;;;;;5016054;28;20535;-93
2021/12/26 07:40:04;;;;;;;11.63;4.30;;;3.60;99.90;;;;;;4982991;28;20193;-89
2021/12/26 07:42:33;;;;;;;9.53;5.20;;;3.60;99.90;;;;;;4980178;28;20301;-92
2021/12/26 07:45:01;;;;;;;9.67;4.87;;;3.60;99.90;;;;;;4969966;28;20186;-90
2021/12/26 07:47:28;;;;;;;13.07;5.17;;;3.70;99.90;;;;;;4971086;28;20201;-89
2021/12/26 07:49:56;;;;;;;9.17;4.60;;;3.70;99.90;;;;;;4983096;28;20200;-92
2021/12/26 07:52:31;;;;;;;8.83;4.57;;;3.70;99.90;;;;;;4983412;28;20195;-93
2021/12/26 07:54:58;;;;;;;9.20;4.73;;;3.70;99.90;;;;;;4980748;28;20207;-92
2021/12/26 07:57:26;;;;;;;10.40;5.13;;;3.70;99.90;;;;;;4980992;28;20556;-92
2021/12/26 07:59:53;;;;;;;10.43;5.50;;;3.80;1.00;;;;;;4983093;28;20664;-92
2021/12/26 08:02:21;;;;;;;9.33;5.40;;;3.70;1.40;;;;;;4983337;28;20525;-92
2021/12/26 08:04:49;;;;;;;8.80;5.37;;;3.80;1.00;;;;;;4980978;28;20189;-93
2021/12/26 08:07:16;;;;;;;8.20;4.70;;;3.80;1.00;;;;;;4983225;28;20267;-91
2021/12/26 08:09:44;;;;;;;9.20;4.97;;;3.90;1.00;;;;;;4982446;28;20554;-93
2021/12/26 08:12:11;;;;;;;8.40;4.87;;;3.90;1.00;;;;;;4982922;28;20611;-92
2021/12/26 08:14:41;;;;;;;7.50;4.70;;;3.90;1.00;;;;;;4982721;28;20537;-93
2021/12/26 08:17:09;;;;;;;11.00;4.27;;;4.00;1.00;;;;;;4981863;28;20200;-90
2021/12/26 08:19:37;;;;;;;6.57;4.53;;;4.10;1.00;;;;;;4982481;28;20195;-90
2021/12/26 08:22:05;;;;;;;6.13;4.40;;;4.10;1.00;;;;;;4982700;28;20192;-91
2021/12/26 08:24:32;;;;;;;5.70;3.90;;;4.20;1.00;;;;;;4980906;28;20195;-87
2021/12/26 08:26:59;;;;;;;6.50;4.33;;;4.20;1.00;;;;;;4982264;28;20201;-90
2021/12/26 08:29:29;;;;;;;6.57;4.17;;;4.30;1.00;;;;;;4982398;28;20556;-93
2021/12/26 08:31:59;;;;;;;5.53;4.20;;;4.20;1.00;;;;;;4980066;28;20198;-89
2021/12/26 08:34:28;;;;;;;6.37;3.93;;;4.30;1.00;;;;;;4977308;28;20197;-89
2021/12/26 08:37:03;;;;;;;4.93;4.00;;;4.40;1.00;;;;;;4987162;28;20577;-89
2021/12/26 08:39:40;;;;;;;4.97;3.43;;;4.50;99.90;;;;;;4985770;28;20193;-88
2021/12/26 08:42:11;;;;;;;4.60;3.63;;;4.60;99.90;;;;;;4987662;28;20212;-89
2021/12/26 08:44:39;;;;;;;4.60;3.77;;;4.60;99.90;;;;;;5001567;28;20189;-89
2021/12/26 08:47:09;;;;;;;5.03;3.90;;;4.60;99.90;;;;;;4995000;28;20265;-87
2021/12/26 08:49:37;;;;;;;4.90;4.07;;;4.70;99.90;;;;;;4981304;28;20216;-88
2021/12/26 08:52:07;;;;;;;6.00;3.83;;;4.80;99.90;;;;;;4986626;28;20201;-87
2021/12/26 08:54:36;;;;;;;4.87;3.93;;;4.80;99.90;;;;;;4987194;28;20667;-89
2021/12/26 08:57:06;;;;;;;58.13;6.10;;;4.90;99.90;;;;;;5002995;28;20209;-88
2021/12/26 08:59:34;;;;;;;35.70;4.83;;;4.90;99.90;;;;;;4978236;28;20227;-91
2021/12/26 09:02:04;;;;;;;81.23;9.07;;;4.90;99.90;;;;;;4971580;28;20530;-88
2021/12/26 09:04:57;;;;;;;6.20;3.27;;;4.90;99.90;;;;;;5004207;28;20186;-91
2021/12/26 09:07:40;;;;;;;12.83;4.10;;;4.90;99.90;;;;;;4980946;28;20268;-89
2021/12/26 09:10:09;;;;;;;5.50;4.10;;;5.00;99.90;;;;;;4999549;28;20189;-90
2021/12/26 09:12:38;;;;;;;8.20;4.20;;;5.10;99.90;;;;;;4985739;28;20572;-88
2021/12/26 09:15:08;;;;;;;7.37;4.13;;;5.30;99.90;;;;;;4983023;28;20200;-87
2021/12/26 09:17:37;;;;;;;5.50;3.90;;;5.40;99.90;;;;;;4981313;28;20221;-88
2021/12/26 09:20:06;;;;;;;4.23;3.50;;;5.50;99.90;;;;;;4984823;28;20194;-89
2021/12/26 09:22:34;;;;;;;4.57;3.40;;;5.60;99.90;;;;;;4983413;28;20186;-88
2021/12/26 09:25:03;;;;;;;3.90;3.00;;;5.70;99.90;;;;;;4983979;28;20186;-88
2021/12/26 09:27:31;;;;;;;3.50;2.60;;;5.80;45.00;;;;;;4981518;28;20639;-89
2021/12/26 09:29:58;;;;;;;4.03;3.20;;;5.90;1.00;;;;;;4998011;28;20225;-90
2021/12/26 09:32:25;;;;;;;4.77;2.70;;;5.90;1.00;;;;;;4985419;28;20287;-88
2021/12/26 09:34:52;;;;;;;4.13;2.87;;;5.90;1.00;;;;;;4985317;28;20185;-89
2021/12/26 09:37:19;;;;;;;3.57;2.77;;;5.90;1.00;;;;;;4983725;28;20216;-88
2021/12/26 09:39:47;;;;;;;2.77;2.43;;;6.00;1.00;;;;;;5004168;28;20189;-88
2021/12/26 09:42:14;;;;;;;3.07;2.53;;;5.90;99.90;;;;;;4983133;28;20243;-90
2021/12/26 09:44:41;;;;;;;2.73;2.40;;;5.90;99.90;;;;;;5004838;28;20201;-89
2021/12/26 09:47:09;;;;;;;3.17;2.77;;;5.90;99.90;;;;;;4984717;28;20209;-89
2021/12/26 09:49:36;;;;;;;3.10;2.80;;;5.90;99.90;;;;;;4983710;28;20200;-88
2021/12/26 09:52:05;;;;;;;3.80;2.80;;;5.90;99.90;;;;;;4986827;28;20201;-89
2021/12/26 09:54:32;;;;;;;3.90;2.77;;;5.90;99.90;;;;;;5003593;28;20710;-87
2021/12/26 09:57:00;;;;;;;3.63;2.90;;;5.90;1.00;;;;;;4999765;28;20232;-88
2021/12/26 09:59:31;;;;;;;3.70;2.80;;;6.00;1.00;;;;;;4983637;28;20193;-87
2021/12/26 10:02:11;;;;;;;4.60;4.03;;;6.00;1.00;;;;;;4984588;28;20243;-88
2021/12/26 10:04:51;;;;;;;4.80;3.90;;;6.00;1.00;;;;;;4972379;28;20189;-87
2021/12/26 10:07:24;;;;;;;6.00;4.57;;;5.90;99.90;;;;;;4985343;28;20205;-88
2021/12/26 10:09:53;;;;;;;5.87;4.20;;;5.90;99.90;;;;;;4983701;28;20208;-88
2021/12/26 10:12:22;;;;;;;5.43;4.00;;;5.80;99.90;;;;;;4983306;28;20193;-87
2021/12/26 10:14:54;;;;;;;5.33;4.27;;;5.80;99.90;;;;;;4984384;28;20203;-88
2021/12/26 10:17:26;;;;;;;5.97;4.10;;;5.80;99.90;;;;;;5003241;28;20275;-89
2021/12/26 10:20:00;;;;;;;5.67;4.33;;;5.80;1.00;;;;;;4982513;28;20615;-88
2021/12/26 10:22:30;;;;;;;5.47;4.43;;;5.90;1.00;;;;;;4982716;28;20197;-89
2021/12/26 10:24:58;;;;;;;5.57;4.00;;;6.00;1.00;;;;;;4982600;28;20201;-88
2021/12/26 10:27:31;;;;;;;5.47;4.00;;;6.10;1.00;;;;;;4982555;28;20195;-87
2021/12/26 10:30:02;;;;;;;6.40;4.20;;;6.10;1.00;;;;;;4982368;28;20525;-88
2021/12/26 10:32:32;;;;;;;4.83;3.83;;;6.30;1.00;;;;;;4983371;28;20208;-87
2021/12/26 10:35:12;;;;;;;5.60;4.00;;;6.40;1.00;;;;;;4983337;28;20553;-86
2021/12/26 10:37:43;;;;;;;4.23;3.47;;;6.60;1.00;;;;;;4983088;28;20229;-87
2021/12/26 10:40:21;;;;;;;4.77;3.73;;;6.60;1.00;;;;;;4999741;28;20616;-87
2021/12/26 10:42:50;;;;;;;4.90;3.47;;;6.70;99.90;;;;;;4983105;28;20213;-86
2021/12/26 10:45:22;;;;;;;4.40;3.27;;;6.70;99.90;;;;;;4999302;28;20220;-88
2021/12/26 10:47:54;;;;;;;5.93;3.33;;;6.80;99.90;;;;;;4983005;28;20208;-87
2021/12/26 10:50:24;;;;;;;4.23;3.70;;;6.80;99.90;;;;;;4999217;28;20243;-86
2021/12/26 10:53:00;;;;;;;5.93;4.00;;;6.90;99.90;;;;;;4982128;28;20224;-87
2021/12/26 10:55:39;;;;;;;3.88;3.30;;;6.90;99.90;;;;;;4982546;28;20212;-86
2021/12/26 10:58:11;;;;;;;6.17;3.60;;;7.00;99.90;;;;;;4982338;28;20309;-87
2021/12/26 11:00:48;;;;;;;4.00;3.20;;;7.00;99.90;;;;;;4982148;28;20216;-86
2021/12/26 11:03:22;;;;;;;5.77;4.37;;;7.10;99.90;;;;;;4981854;28;20651;-86
2021/12/26 11:05:53;;;;;;;6.50;4.63;;;7.20;99.90;;;;;;4982359;28;20242;-87
2021/12/26 11:08:30;;;;;;;6.53;4.75;;;7.20;99.90;;;;;;4982377;28;20281;-86
2021/12/26 11:11:07;;;;;;;11.45;8.15;;;7.30;99.90;;;;;;4982292;28;20201;-86
2021/12/26 11:13:34;;;;;;;25.48;14.93;;;7.30;99.90;;;;;;4981983;28;20192;-86
2021/12/26 11:16:07;;;;;;;10.55;7.22;;;7.30;98.50;;;;;;4998484;28;20197;-86
2021/12/26 11:18:37;;;;;;;13.55;9.82;;;7.30;35.40;;;;;;4981808;28;20288;-87
2021/12/26 11:21:13;;;;;;;7.57;5.47;;;7.40;95.20;;;;;;4981864;28;20699;-87
2021/12/26 11:23:42;;;;;;;11.60;4.50;;;7.30;1.00;;;;;;4981251;28;20185;-86
2021/12/26 11:26:11;;;;;;;6.93;5.40;;;7.40;1.00;;;;;;4982106;28;20631;-85
2021/12/26 11:28:42;;;;;;;6.82;4.60;;;7.40;1.00;;;;;;4982308;28;20664;-87
2021/12/26 11:31:12;;;;;;;7.78;4.80;;;7.50;1.00;;;;;;4981824;28;20256;-86
2021/12/26 11:33:39;;;;;;;6.75;4.57;;;7.50;1.00;;;;;;4981813;28;20201;-87
2021/12/26 11:36:11;;;;;;;8.07;4.90;;;7.50;1.00;;;;;;4982116;28;20244;-86
2021/12/26 11:38:40;;;;;;;8.47;4.77;;;7.50;1.00;;;;;;4981879;28;20580;-88
2021/12/26 11:41:35;;;;;;;5.83;4.40;;;7.50;1.00;;;;;;4981628;28;20271;-87
2021/12/26 11:44:47;;;;;;;5.40;4.20;;;7.50;1.00;;;;;;4997898;28;20197;-86
2021/12/26 11:47:58;;;;;;;5.68;4.43;;;7.30;1.00;;;;;;4958345;28;20207;-87
2021/12/26 11:50:43;;;;;;;5.90;4.47;;;7.20;1.00;;;;;;4997568;28;20208;-87
2021/12/26 11:53:32;;;;;;;5.43;4.30;;;7.10;1.00;;;;;;4998000;28;20192;-85
2021/12/26 11:56:27;;;;;;;6.38;4.45;;;7.00;1.00;;;;;;4981328;28;20193;-87
2021/12/26 11:59:35;;;;;;;5.87;4.43;;;7.00;32.80;;;;;;4981365;28;20256;-87
2021/12/26 12:02:02;;;;;;;8.17;4.50;;;6.90;99.90;;;;;;4981888;28;20751;-86
2021/12/26 12:04:29;;;;;;;10.52;5.32;;;6.90;99.90;;;;;;4997878;28;20189;-86
2021/12/26 12:07:07;;;;;;;13.13;5.13;;;6.90;99.90;;;;;;4985654;28;20223;-86
2021/12/26 12:09:37;;;;;;;7.65;4.55;;;6.90;99.90;;;;;;4985484;28;20189;-85
2021/12/26 12:12:12;;;;;;;6.03;5.07;;;6.90;99.90;;;;;;4985546;28;20200;-87
2021/12/26 12:14:44;;;;;;;8.20;4.93;;;6.90;99.90;;;;;;4985865;28;20603;-85
2021/12/26 12:17:20;;;;;;;8.15;4.63;;;7.00;99.90;;;;;;4985620;28;20237;-85
2021/12/26 12:20:16;;;;;;;6.07;5.07;;;7.00;99.90;;;;;;5001399;28;20655;-86
2021/12/26 12:23:06;;;;;;;7.67;5.40;;;7.00;99.90;;;;;;5001349;28;20193;-86
2021/12/26 12:25:33;;;;;;;8.27;5.05;;;7.00;99.90;;;;;;4983984;28;20220;-86
2021/12/26 12:28:40;;;;;;;7.25;4.63;;;7.00;99.90;;;;;;4985519;28;20189;-85
2021/12/26 12:31:07;;;;;;;8.13;5.20;;;7.00;99.90;;;;;;4904192;29;20216;-85
2021/12/26 12:33:36;;;;;;;7.95;4.93;;;7.00;99.90;;;;;;4937866;28;20635;-85
2021/12/26 12:36:09;;;;;;;7.13;4.82;;;7.10;99.90;;;;;;5001375;28;20239;-85
2021/12/26 12:38:47;;;;;;;6.55;4.70;;;7.10;99.90;;;;;;4985899;28;20209;-86
2021/12/26 12:41:28;;;;;;;15.80;12.13;;;7.00;99.90;;;;;;5002766;28;20707;-86
2021/12/26 12:43:58;;;;;;;14.32;12.20;;;7.10;99.90;;;;;;5000848;28;20656;-85
2021/12/26 12:46:25;;;;;;;4.97;4.28;;;7.20;99.90;;;;;;5000695;28;20216;-85
2021/12/26 12:49:06;;;;;;;5.18;3.90;;;7.30;99.90;;;;;;4984697;28;20195;-85
2021/12/26 12:51:44;;;;;;;5.85;4.10;;;7.40;99.90;;;;;;4984253;28;20185;-85
2021/12/26 12:54:23;;;;;;;5.60;4.38;;;7.40;99.90;;;;;;4984460;28;20221;-86
2021/12/26 12:56:50;;;;;;;6.72;4.22;;;7.50;99.90;;;;;;5000290;28;20255;-85
2021/12/26 12:59:20;;;;;;;7.15;3.40;;;7.70;99.90;;;;;;4984077;28;20714;-86
2021/12/26 13:01:48;;;;;;;3.42;2.83;;;7.80;99.90;;;;;;4984123;28;20189;-85
2021/12/26 13:04:21;;;;;;;3.85;3.08;;;8.00;99.90;;;;;;4984533;28;20193;-86
2021/12/26 13:06:57;;;;;;;4.40;2.05;;;8.00;1.00;;;;;;4984616;28;20193;-85
2021/12/26 13:09:25;;;;;;;3.03;2.50;;;8.00;1.00;;;;;;5000045;28;20185;-86
2021/12/26 13:11:58;;;;;;;3.00;2.55;;;8.00;1.00;;;;;;4983888;28;20193;-85
2021/12/26 13:14:51;;;;;;;3.30;3.00;;;8.00;1.00;;;;;;5000440;28;20197;-85